Time;durP1;ratioP1;P1;durP2;ratioP2;P2;SDS_P1;SDS_P2;PMS_P1;PMS_P2;Temp;Humidity;BMP_temperature;BMP_pressure;BME280_temperature;BME280_humidity;BME280_pressure;Samples;Min_cycle;Max_cycle;Signal;HPM_P1;HPM_P2
2023/10/05 00:01:45;;;;;;;;;;;;;;;17.25;54.66;101364.88;6091903;23;6939;-72
2023/10/05 00:04:16;;;;;;;;;;;;;;;17.27;54.52;101363.22;6097782;23;7301;-73
2023/10/05 00:06:42;;;;;;;;;;;;;;;17.31;55.03;101362.53;6070212;23;7000;-73
2023/10/05 00:09:11;;;;;;;;;;;;;;;17.34;54.90;101360.03;6117805;23;6782;-72
2023/10/05 00:11:37;;;;;;;;;;;;;;;17.38;54.70;101363.63;6118309;23;6933;-73
2023/10/05 00:14:07;;;;;;;;;;;;;;;17.41;54.88;101363.72;6115732;23;6945;-72
2023/10/05 00:16:39;;;;;;;;;;;;;;;17.45;54.35;101355.25;6092106;23;7253;-73
2023/10/05 00:19:12;;;;;;;;;;;;;;;17.48;54.80;101355.34;6092128;23;6779;-73
2023/10/05 00:21:46;;;;;;;;;;;;;;;17.51;54.44;101357.16;6116022;23;6850;-72
2023/10/05 00:24:12;;;;;;;;;;;;;;;17.53;54.59;101355.50;6117270;23;7163;-73
2023/10/05 00:26:38;;;;;;;;;;;;;;;17.55;54.89;101352.97;6118370;23;6767;-73
2023/10/05 00:31:39;;;;;;;;;;;;;;;17.57;54.63;101356.47;6095972;23;6911;-73
2023/10/05 00:34:11;;;;;;;;;;;;;;;17.60;54.13;101361.75;6068365;23;7161;-73
2023/10/05 00:36:40;;;;;;;;;;;;;;;17.61;54.66;101351.47;6068708;23;6974;-73
2023/10/05 00:39:09;;;;;;;;;;;;;;;17.63;54.19;101361.88;6115470;23;7853;-73
2023/10/05 00:41:36;;;;;;;;;;;;;;;17.65;54.45;101352.44;6116805;23;7018;-73
2023/10/05 00:44:06;;;;;;;;;;;;;;;17.66;54.62;101356.81;6090642;23;6787;-73
2023/10/05 00:46:38;;;;;;;;;;;;;;;17.67;54.10;101355.06;6116878;23;6775;-73
2023/10/05 00:49:13;;;;;;;;;;;;;;;17.68;54.45;101362.06;6092401;23;7069;-73
2023/10/05 00:51:42;;;;;;;;;;;;;;;17.69;54.29;101371.59;6093372;23;6940;-73
2023/10/05 00:54:16;;;;;;;;;;;;;;;17.69;54.37;101366.41;6091600;23;7826;-73
2023/10/05 00:56:42;;;;;;;;;;;;;;;17.69;54.43;101369.00;6092469;23;6985;-73
2023/10/05 00:59:15;;;;;;;;;;;;;;;17.70;54.49;101368.16;6090194;23;6899;-73
2023/10/05 01:04:23;;;;;;;;;;;;;;;17.66;53.88;101361.09;6103777;23;6767;-73
2023/10/05 01:07:07;;;;;;;;;;;;;;;17.64;53.96;101358.47;6093296;23;6783;-73
2023/10/05 01:09:55;;;;;;;;;;;;;;;17.63;54.37;101361.88;6095875;23;6782;-72
2023/10/05 01:12:43;;;;;;;;;;;;;;;17.61;54.18;101361.81;6099501;23;6771;-73
2023/10/05 01:15:09;;;;;;;;;;;;;;;17.61;54.78;101364.41;6098235;23;6788;-72
2023/10/05 01:17:36;;;;;;;;;;;;;;;17.62;54.34;101365.28;6093509;23;7082;-74
2023/10/05 01:20:22;;;;;;;;;;;;;;;17.61;54.10;101367.00;6092093;23;6763;-74
2023/10/05 01:22:49;;;;;;;;;;;;;;;17.61;54.27;101366.13;6117665;23;6975;-74
2023/10/05 01:25:15;;;;;;;;;;;;;;;17.60;53.91;101373.03;6091278;23;7028;-74
2023/10/05 01:27:51;;;;;;;;;;;;;;;17.60;54.43;101374.72;6092829;23;6947;-74
2023/10/05 01:30:19;;;;;;;;;;;;;;;17.58;54.45;101377.28;6091685;23;6771;-74
2023/10/05 01:32:46;;;;;;;;;;;;;;;17.56;54.38;101371.13;6070790;23;6976;-74
2023/10/05 01:35:15;;;;;;;;;;;;;;;17.55;53.87;101379.75;6092495;23;7278;-74
2023/10/05 01:37:46;;;;;;;;;;;;;;;17.52;54.50;101374.47;6094769;23;7013;-74
2023/10/05 01:42:51;;;;;;;;;;;;;;;17.45;53.91;101385.44;6128863;23;6779;-74
2023/10/05 01:45:28;;;;;;;;;;;;;;;17.41;54.25;101381.00;6091746;23;6845;-74
2023/10/05 01:47:54;;;;;;;;;;;;;;;17.38;54.11;101388.63;6095608;23;6771;-74
2023/10/05 01:50:22;;;;;;;;;;;;;;;17.35;54.49;101389.44;6067565;23;6938;-74
2023/10/05 01:52:56;;;;;;;;;;;;;;;17.33;54.32;101386.78;6119492;23;6940;-74
2023/10/05 01:55:24;;;;;;;;;;;;;;;17.33;54.70;101393.66;6093578;23;6767;-74
2023/10/05 01:57:51;;;;;;;;;;;;;;;17.31;54.86;101393.63;6093486;23;7027;-74
2023/10/05 02:00:20;;;;;;;;;;;;;;;17.31;54.22;101384.94;6117105;23;6778;-74
2023/10/05 02:02:48;;;;;;;;;;;;;;;17.30;54.65;101373.72;6117970;23;6921;-74
2023/10/05 02:05:18;;;;;;;;;;;;;;;17.29;54.52;101368.47;6119768;23;6909;-74
2023/10/05 02:07:43;;;;;;;;;;;;;;;17.28;54.77;101370.16;6119830;23;6802;-74
2023/10/05 02:10:10;;;;;;;;;;;;;;;17.27;54.67;101375.31;6092262;23;8001;-74
2023/10/05 02:12:37;;;;;;;;;;;;;;;17.24;54.41;101370.91;6093983;23;6855;-74
2023/10/05 02:15:10;;;;;;;;;;;;;;;17.21;54.56;101376.84;6116295;23;6775;-74
2023/10/05 02:17:41;;;;;;;;;;;;;;;17.16;54.53;101370.63;6093874;23;6771;-74
2023/10/05 02:20:12;;;;;;;;;;;;;;;17.14;54.67;101363.63;6093454;23;6860;-74
2023/10/05 02:22:40;;;;;;;;;;;;;;;17.09;54.93;101363.44;6094074;23;6775;-74
2023/10/05 02:25:08;;;;;;;;;;;;;;;17.06;54.69;101365.94;6115961;23;6968;-74
2023/10/05 02:27:35;;;;;;;;;;;;;;;17.04;54.91;101371.06;6094164;23;6779;-71
2023/10/05 02:30:08;;;;;;;;;;;;;;;17.03;54.99;101364.13;6122517;23;6850;-72
2023/10/05 02:32:34;;;;;;;;;;;;;;;17.03;55.29;101358.03;6096956;23;7136;-72
2023/10/05 02:35:05;;;;;;;;;;;;;;;17.01;55.32;101364.88;6120807;23;6767;-71
2023/10/05 02:37:36;;;;;;;;;;;;;;;17.01;54.92;101359.69;6096789;23;7128;-71
2023/10/05 02:40:08;;;;;;;;;;;;;;;17.00;54.91;101357.91;6094108;23;6767;-71
2023/10/05 02:42:35;;;;;;;;;;;;;;;17.00;55.62;101353.66;6095005;23;7489;-71
2023/10/05 02:45:06;;;;;;;;;;;;;;;17.01;55.04;101344.16;6097001;23;7193;-71
2023/10/05 02:47:31;;;;;;;;;;;;;;;17.03;55.35;101350.25;6093732;23;6992;-71
2023/10/05 02:50:00;;;;;;;;;;;;;;;17.05;55.67;101340.88;6095969;23;8451;-71
2023/10/05 02:52:26;;;;;;;;;;;;;;;17.07;55.38;101345.25;6095910;23;6774;-71
2023/10/05 02:54:52;;;;;;;;;;;;;;;17.08;55.21;101343.56;6095494;23;6770;-71
2023/10/05 02:57:19;;;;;;;;;;;;;;;17.10;55.07;101330.69;6094098;23;6940;-71
2023/10/05 02:59:46;;;;;;;;;;;;;;;17.12;55.17;101332.47;6096987;23;6834;-71
2023/10/05 03:02:16;;;;;;;;;;;;;;;17.15;55.28;101342.06;6094890;23;7018;-70
2023/10/05 03:04:48;;;;;;;;;;;;;;;17.20;55.35;101340.53;6071308;23;6859;-73
2023/10/05 03:07:17;;;;;;;;;;;;;;;17.23;54.91;101343.22;6096494;23;6823;-70
2023/10/05 03:09:48;;;;;;;;;;;;;;;17.26;55.40;101334.69;6095849;23;6819;-71
2023/10/05 03:12:15;;;;;;;;;;;;;;;17.28;55.51;101331.31;6118353;23;6986;-71
2023/10/05 03:14:43;;;;;;;;;;;;;;;17.31;55.18;101333.13;6122819;23;6770;-73
2023/10/05 03:17:13;;;;;;;;;;;;;;;17.33;54.74;101336.66;6093528;23;6771;-70
2023/10/05 03:19:39;;;;;;;;;;;;;;;17.34;54.90;101333.25;6096691;23;7225;-71
2023/10/05 03:22:13;;;;;;;;;;;;;;;17.34;54.80;101335.84;6093728;23;6790;-71
2023/10/05 03:24:47;;;;;;;;;;;;;;;17.33;54.80;101340.13;6094376;23;6840;-71
2023/10/05 03:27:14;;;;;;;;;;;;;;;17.34;54.65;101339.31;6094201;23;6939;-70
2023/10/05 03:29:45;;;;;;;;;;;;;;;17.33;54.85;101337.53;6119748;23;6971;-71
2023/10/05 03:34:37;;;;;;;;;;;;;;;17.33;54.49;101332.34;6095674;23;6823;-71
2023/10/05 03:37:07;;;;;;;;;;;;;;;17.33;54.90;101332.34;6094046;23;6946;-73
2023/10/05 03:39:48;;;;;;;;;;;;;;;17.35;54.73;101343.66;6093687;23;7220;-73
2023/10/05 03:42:14;;;;;;;;;;;;;;;17.36;55.07;101344.56;6089925;23;8513;-73
2023/10/05 03:44:40;;;;;;;;;;;;;;;17.39;54.64;101346.38;6091584;23;6941;-72
2023/10/05 03:47:05;;;;;;;;;;;;;;;17.39;54.83;101339.47;6091479;23;6933;-73
2023/10/05 03:49:31;;;;;;;;;;;;;;;17.41;54.96;101344.72;6092464;23;6762;-73
2023/10/05 03:51:57;;;;;;;;;;;;;;;17.43;55.00;101340.47;6115966;23;6788;-73
2023/10/05 03:54:25;;;;;;;;;;;;;;;17.44;54.50;101339.63;6092162;23;7136;-72
2023/10/05 03:57:30;;;;;;;;;;;;;;;17.43;54.86;101346.53;6089917;23;7013;-73
2023/10/05 03:59:44;;;;;;;;;;;;;;;17.44;54.76;101343.13;6094841;23;7172;-72
2023/10/05 04:02:10;;;;;;;;;;;;;;;17.44;54.93;101344.81;6089609;23;6763;-72
2023/10/05 04:04:37;;;;;;;;;;;;;;;17.44;54.88;101344.81;6118195;23;7056;-73
2023/10/05 04:07:04;;;;;;;;;;;;;;;17.45;54.90;101344.88;6114537;23;6981;-72
2023/10/05 04:09:30;;;;;;;;;;;;;;;17.45;55.04;101339.69;6092800;23;6775;-73
2023/10/05 04:11:57;;;;;;;;;;;;;;;17.45;55.00;101334.50;6092195;23;6917;-72
2023/10/05 04:14:26;;;;;;;;;;;;;;;17.43;54.86;101340.47;6091411;23;7743;-72
2023/10/05 04:16:53;;;;;;;;;;;;;;;17.41;55.43;101349.91;6093146;23;6775;-72
2023/10/05 04:19:19;;;;;;;;;;;;;;;17.38;54.82;101339.41;6115590;23;7177;-72
2023/10/05 04:21:45;;;;;;;;;;;;;;;17.34;55.15;101341.03;6116154;23;6991;-73
2023/10/05 04:24:16;;;;;;;;;;;;;;;17.31;55.03;101343.50;6117724;23;7810;-73
2023/10/05 04:26:45;;;;;;;;;;;;;;;17.27;54.70;101346.81;6069658;23;6942;-72
2023/10/05 04:29:12;;;;;;;;;;;;;;;17.25;55.21;101343.28;6089770;23;6787;-72
2023/10/05 04:31:38;;;;;;;;;;;;;;;17.23;55.33;101338.03;6090961;23;7063;-72
2023/10/05 04:34:11;;;;;;;;;;;;;;;17.22;55.10;101336.28;6092007;23;6814;-73
2023/10/05 04:36:38;;;;;;;;;;;;;;;17.20;55.47;101331.03;6090822;23;7365;-73
2023/10/05 04:39:06;;;;;;;;;;;;;;;17.22;55.50;101333.69;6091122;23;6954;-73
2023/10/05 04:41:39;;;;;;;;;;;;;;;17.22;55.26;101338.88;6117962;23;6779;-72
2023/10/05 04:44:07;;;;;;;;;;;;;;;17.23;55.62;101329.38;6092762;23;6767;-73
2023/10/05 04:46:33;;;;;;;;;;;;;;;17.23;55.40;101335.47;6092845;23;6770;-72
2023/10/05 04:49:08;;;;;;;;;;;;;;;17.24;55.18;101345.00;6092287;23;7353;-72
2023/10/05 04:51:38;;;;;;;;;;;;;;;17.25;55.57;101345.88;6091555;23;7261;-73
2023/10/05 04:54:06;;;;;;;;;;;;;;;17.27;55.88;101342.50;6092103;23;6771;-72
2023/10/05 05:04:27;;;;;;;;;;;;;;;17.30;55.63;101323.59;6102812;23;6818;-72
2023/10/05 05:07:00;;;;;;;;;;;;;;;17.31;55.18;101323.66;6116787;23;7047;-72
2023/10/05 05:09:30;;;;;;;;;;;;;;;17.30;55.70;101316.72;6093393;23;6950;-72
2023/10/05 05:12:03;;;;;;;;;;;;;;;17.33;55.39;101318.50;6091554;23;7171;-73
2023/10/05 05:14:44;;;;;;;;;;;;;;;17.34;55.44;101318.56;6093082;23;7831;-72
2023/10/05 05:17:19;;;;;;;;;;;;;;;17.34;56.04;101318.56;6093207;23;6787;-73
2023/10/05 05:19:46;;;;;;;;;;;;;;;17.35;55.76;101320.34;6090510;23;6779;-72
2023/10/05 05:22:12;;;;;;;;;;;;;;;17.35;55.29;101309.97;6090326;23;7727;-72
2023/10/05 05:24:38;;;;;;;;;;;;;;;17.37;55.62;101311.72;6091716;23;6796;-72
2023/10/05 05:29:38;;;;;;;;;;;;;;;17.36;55.26;101313.47;6101318;23;7081;-72
2023/10/05 05:32:10;;;;;;;;;;;;;;;17.36;55.42;101310.88;6116754;23;6835;-73
2023/10/05 05:34:37;;;;;;;;;;;;;;;17.35;55.51;101309.97;6068248;23;6808;-73
2023/10/05 05:37:04;;;;;;;;;;;;;;;17.37;55.78;101316.91;6092297;23;6779;-73
2023/10/05 05:39:39;;;;;;;;;;;;;;;17.36;55.68;101318.63;6092090;23;7187;-72
2023/10/05 05:42:18;;;;;;;;;;;;;;;17.35;55.70;101325.50;6093073;23;7825;-72
2023/10/05 05:44:44;;;;;;;;;;;;;;;17.37;55.33;101319.50;6070017;23;7057;-72
2023/10/05 05:47:11;;;;;;;;;;;;;;;17.35;55.23;101315.16;6087105;23;6820;-73
2023/10/05 05:49:38;;;;;;;;;;;;;;;17.35;55.50;101324.66;6097667;23;6859;-72
2023/10/05 05:52:05;;;;;;;;;;;;;;;17.38;55.91;101331.63;6125285;23;7485;-80
2023/10/05 05:54:35;;;;;;;;;;;;;;;17.37;55.91;101329.88;6124066;23;6805;-79
2023/10/05 05:57:06;;;;;;;;;;;;;;;17.38;55.22;101331.63;6123655;23;7190;-79
2023/10/05 05:59:47;;;;;;;;;;;;;;;17.41;55.90;101337.81;6122826;23;6763;-88
2023/10/05 06:02:13;;;;;;;;;;;;;;;17.41;55.58;101340.38;6107835;23;6926;-87
2023/10/05 06:04:40;;;;;;;;;;;;;;;17.46;55.71;101343.16;6097747;23;6923;-74
2023/10/05 06:07:16;;;;;;;;;;;;;;;17.42;55.55;101342.16;6143539;23;6782;-73
2023/10/05 06:09:45;;;;;;;;;;;;;;;17.44;56.17;101352.59;6120409;23;6960;-73
2023/10/05 06:12:12;;;;;;;;;;;;;;;17.46;55.68;101358.69;6096895;23;6964;-73
2023/10/05 06:14:42;;;;;;;;;;;;;;;17.48;55.66;101363.09;6121084;23;7058;-73
2023/10/05 06:17:09;;;;;;;;;;;;;;;17.51;55.92;101362.34;6123295;23;6939;-74
2023/10/05 06:19:36;;;;;;;;;;;;;;;17.53;55.55;101362.38;6124095;23;7185;-72
2023/10/05 06:22:04;;;;;;;;;;;;;;;17.56;55.50;101375.47;6122127;23;7215;-75
2023/10/05 06:24:30;;;;;;;;;;;;;;;17.59;55.41;101367.78;6145646;23;6950;-73
2023/10/05 06:26:56;;;;;;;;;;;;;;;17.61;56.26;101358.34;6120907;23;7042;-72
2023/10/05 06:29:21;;;;;;;;;;;;;;;17.65;55.94;101364.50;6120520;23;6967;-73
2023/10/05 06:31:47;;;;;;;;;;;;;;;17.67;55.94;101358.56;6103536;23;6771;-74
2023/10/05 06:34:13;;;;;;;;;;;;;;;17.70;55.73;101369.03;6118363;23;6835;-72
2023/10/05 06:36:39;;;;;;;;;;;;;;;17.73;56.00;101352.69;6119818;23;6779;-73
2023/10/05 06:39:06;;;;;;;;;;;;;;;17.76;55.78;101361.47;6117405;23;6945;-74
2023/10/05 06:41:34;;;;;;;;;;;;;;;17.80;55.61;101359.88;6118009;23;7013;-73
2023/10/05 06:44:02;;;;;;;;;;;;;;;17.84;55.80;101356.53;6117757;23;7088;-73
2023/10/05 06:46:28;;;;;;;;;;;;;;;17.89;55.69;101360.16;6117079;23;6778;-74
2023/10/05 06:48:54;;;;;;;;;;;;;;;17.92;55.52;101359.41;6112901;23;6800;-74
2023/10/05 06:51:27;;;;;;;;;;;;;;;17.95;55.78;101368.97;6105893;23;8583;-72
2023/10/05 06:53:53;;;;;;;;;;;;;;;17.98;55.17;101369.09;6086989;23;6779;-72
2023/10/05 06:56:22;;;;;;;;;;;;;;;18.01;55.57;101379.56;6063458;23;6971;-72
2023/10/05 06:58:48;;;;;;;;;;;;;;;18.04;55.81;101387.47;6087454;23;6847;-73
2023/10/05 07:01:14;;;;;;;;;;;;;;;18.08;55.52;101391.03;6085504;23;6932;-73
2023/10/05 07:03:40;;;;;;;;;;;;;;;18.11;55.46;101396.34;6087152;23;6884;-73
2023/10/05 07:06:06;;;;;;;;;;;;;;;18.13;55.21;101408.50;6091401;23;6759;-73
2023/10/05 07:08:34;;;;;;;;;;;;;;;18.20;55.42;101398.34;6064915;23;6933;-74
2023/10/05 07:11:01;;;;;;;;;;;;;;;18.23;55.79;101401.03;6086292;23;6779;-74
2023/10/05 07:13:28;;;;;;;;;;;;;;;18.28;55.59;101409.88;6086530;23;7980;-74
2023/10/05 07:15:55;;;;;;;;;;;;;;;18.31;55.50;101397.88;6083924;23;6975;-74
2023/10/05 07:18:21;;;;;;;;;;;;;;;18.38;55.10;101404.13;6087326;23;6775;-74
2023/10/05 07:20:48;;;;;;;;;;;;;;;18.42;54.96;101408.56;6081233;23;6775;-74
2023/10/05 07:23:14;;;;;;;;;;;;;;;18.46;54.67;101409.56;6086235;23;6775;-74
2023/10/05 07:25:41;;;;;;;;;;;;;;;18.51;55.10;101413.19;6086690;23;6763;-74
2023/10/05 07:28:14;;;;;;;;;;;;;;;18.55;55.18;101424.56;6088101;23;7318;-74
2023/10/05 07:30:41;;;;;;;;;;;;;;;18.59;54.91;101426.41;6088056;23;6839;-74
2023/10/05 07:33:07;;;;;;;;;;;;;;;18.64;55.08;101430.03;6086499;23;6915;-74
2023/10/05 07:35:32;;;;;;;;;;;;;;;18.70;54.78;101437.13;6085140;23;7261;-74
2023/10/05 07:37:59;;;;;;;;;;;;;;;18.73;54.64;101435.53;6086110;23;7247;-74
2023/10/05 07:40:25;;;;;;;;;;;;;;;18.75;54.87;101438.16;6085619;23;7167;-74
2023/10/05 07:42:51;;;;;;;;;;;;;;;18.78;54.51;101434.75;6087187;23;6775;-74
2023/10/05 07:45:17;;;;;;;;;;;;;;;18.81;54.54;101432.25;6087079;23;6831;-74
2023/10/05 07:47:49;;;;;;;;;;;;;;;18.86;54.55;101436.75;6087650;23;6758;-74
2023/10/05 07:50:15;;;;;;;;;;;;;;;18.90;54.48;101445.53;6086621;23;6973;-74
2023/10/05 07:52:48;;;;;;;;;;;;;;;18.95;54.44;101443.06;6086001;23;7151;-74
2023/10/05 07:55:13;;;;;;;;;;;;;;;19.01;54.63;101446.75;6087215;23;6775;-74
2023/10/05 07:57:39;;;;;;;;;;;;;;;19.10;54.39;101455.66;6086253;23;6774;-74
2023/10/05 08:00:06;;;;;;;;;;;;;;;19.19;54.74;101458.53;6088404;23;6922;-74
2023/10/05 08:02:32;;;;;;;;;;;;;;;19.31;54.46;101460.59;6080199;23;7145;-74
2023/10/05 08:04:58;;;;;;;;;;;;;;;19.41;54.37;101466.94;6057976;23;6941;-74
2023/10/05 08:07:24;;;;;;;;;;;;;;;19.50;54.08;101467.19;6058756;23;6898;-74
2023/10/05 08:09:49;;;;;;;;;;;;;;;19.58;53.77;101462.22;6082471;23;6759;-74
2023/10/05 08:12:15;;;;;;;;;;;;;;;19.65;53.83;101461.56;6058662;23;7518;-74
2023/10/05 08:14:44;;;;;;;;;;;;;;;19.72;53.51;101462.63;6081692;23;7289;-74
2023/10/05 08:17:12;;;;;;;;;;;;;;;19.78;53.33;101459.28;6080789;23;6799;-73
2023/10/05 08:19:37;;;;;;;;;;;;;;;19.82;53.33;101462.03;6081884;23;7093;-73
2023/10/05 08:22:03;;;;;;;;;;;;;;;19.90;53.57;101450.94;6081669;23;7045;-75
2023/10/05 08:24:31;;;;;;;;;;;;;;;19.95;53.55;101458.06;6058805;23;6763;-75
2023/10/05 08:26:57;;;;;;;;;;;;;;;20.02;53.21;101458.19;6059582;23;6778;-75
2023/10/05 08:29:23;;;;;;;;;;;;;;;20.10;53.16;101467.97;6082852;23;6995;-75
2023/10/05 08:31:52;;;;;;;;;;;;;;;20.22;52.92;101476.94;6080934;23;7963;-74
2023/10/05 08:34:20;;;;;;;;;;;;;;;20.28;53.13;101468.41;6060169;23;6954;-75
2023/10/05 08:36:53;;;;;;;;;;;;;;;20.35;52.86;101480.72;6082122;23;7099;-75
2023/10/05 08:39:26;;;;;;;;;;;;;;;20.44;52.82;101469.66;6056834;23;6775;-75
2023/10/05 08:42:02;;;;;;;;;;;;;;;20.54;52.67;101466.41;6080659;23;6767;-75
2023/10/05 08:44:30;;;;;;;;;;;;;;;20.62;52.48;101472.69;6059298;23;6946;-75
2023/10/05 08:46:57;;;;;;;;;;;;;;;20.69;52.15;101471.09;6080096;23;6911;-75
2023/10/05 08:49:24;;;;;;;;;;;;;;;20.76;51.89;101480.84;6082345;23;7875;-75
2023/10/05 08:51:51;;;;;;;;;;;;;;;20.79;51.80;101478.28;6081876;23;6835;-75
2023/10/05 08:54:21;;;;;;;;;;;;;;;20.85;51.85;101480.19;6059701;23;7934;-75
2023/10/05 08:56:48;;;;;;;;;;;;;;;20.88;51.54;101472.47;6080620;23;6778;-75
2023/10/05 08:59:15;;;;;;;;;;;;;;;20.91;51.60;101476.88;6079390;23;6782;-75
2023/10/05 09:01:46;;;;;;;;;;;;;;;20.93;51.45;101472.56;6055715;23;7044;-75
2023/10/05 09:06:55;;;;;;;;;;;;;;;20.92;51.21;101482.09;6066423;23;6826;-74
2023/10/05 09:09:39;;;;;;;;;;;;;;;20.89;51.06;101484.63;6055428;23;6779;-74
2023/10/05 09:12:37;;;;;;;;;;;;;;;20.88;51.08;101487.19;6080682;23;6775;-74
2023/10/05 09:17:56;;;;;;;;;;;;;;;20.99;51.59;101484.84;6090877;23;6771;-74
2023/10/05 09:20:33;;;;;;;;;;;;;;;21.07;51.04;101496.31;6058541;23;7016;-74
2023/10/05 09:23:09;;;;;;;;;;;;;;;21.15;50.77;101502.59;6057349;23;6843;-74
2023/10/05 09:25:38;;;;;;;;;;;;;;;21.22;50.89;101498.38;6058414;23;7132;-75
2023/10/05 09:28:19;;;;;;;;;;;;;;;21.31;51.01;101497.69;6084383;23;7288;-74
2023/10/05 09:30:57;;;;;;;;;;;;;;;21.41;50.98;101503.97;6079694;23;6869;-74
2023/10/05 09:33:28;;;;;;;;;;;;;;;21.51;50.77;101512.00;6058362;23;7140;-75
2023/10/05 09:36:06;;;;;;;;;;;;;;;21.60;50.57;101519.16;6059707;23;8416;-74
2023/10/05 09:38:43;;;;;;;;;;;;;;;21.68;50.17;101521.03;6059008;23;7163;-74
2023/10/05 09:41:09;;;;;;;;;;;;;;;21.72;49.84;101521.13;6059145;23;7195;-74
2023/10/05 09:43:38;;;;;;;;;;;;;;;21.75;49.73;101531.66;6059369;23;7156;-75
2023/10/05 09:46:09;;;;;;;;;;;;;;;21.74;49.63;101529.91;6060013;23;7040;-74
2023/10/05 09:48:39;;;;;;;;;;;;;;;21.71;49.52;101535.03;6058261;23;6935;-74
2023/10/05 09:51:10;;;;;;;;;;;;;;;21.68;49.43;101536.69;6058943;23;6771;-74
2023/10/05 09:53:42;;;;;;;;;;;;;;;21.64;49.60;101540.97;6059675;23;7007;-74
2023/10/05 09:56:13;;;;;;;;;;;;;;;21.61;49.61;101543.50;6058515;23;6791;-74
2023/10/05 09:58:41;;;;;;;;;;;;;;;21.59;49.34;101540.88;6060420;23;6839;-74
2023/10/05 10:01:13;;;;;;;;;;;;;;;21.62;49.62;101537.41;6059172;23;6839;-74
2023/10/05 10:03:45;;;;;;;;;;;;;;;21.64;49.52;101539.22;6083169;23;6914;-74
2023/10/05 10:06:18;;;;;;;;;;;;;;;21.65;49.32;101535.75;6069661;23;6955;-74
2023/10/05 10:08:54;;;;;;;;;;;;;;;21.64;49.13;101543.56;6093982;23;8150;-72
2023/10/05 10:11:27;;;;;;;;;;;;;;;21.62;49.50;101540.03;6093052;23;6767;-72
2023/10/05 10:14:01;;;;;;;;;;;;;;;21.60;49.43;101532.19;6094860;23;6976;-72
2023/10/05 10:16:28;;;;;;;;;;;;;;;21.58;49.23;101533.00;6116982;23;6950;-72
2023/10/05 10:19:08;;;;;;;;;;;;;;;21.56;49.26;101529.50;6119110;23;6934;-72
2023/10/05 10:21:46;;;;;;;;;;;;;;;21.47;49.19;101525.84;6093285;23;6763;-72
2023/10/05 10:24:17;;;;;;;;;;;;;;;21.39;49.15;101527.41;6070551;23;6967;-72
2023/10/05 10:27:07;;;;;;;;;;;;;;;21.33;49.51;101535.97;6094404;23;7273;-72
2023/10/05 10:29:42;;;;;;;;;;;;;;;21.25;49.39;101532.31;6093511;23;6970;-72
2023/10/05 10:32:34;;;;;;;;;;;;;;;21.20;49.35;101532.22;6116428;23;6962;-72
2023/10/05 10:35:13;;;;;;;;;;;;;;;21.17;49.93;101532.16;6070211;23;7231;-72
2023/10/05 10:37:44;;;;;;;;;;;;;;;21.18;49.99;101539.13;6116676;23;6929;-74
2023/10/05 10:45:41;;;;;;;;;;;;;;;21.26;49.97;101539.28;6130179;23;6763;-73
2023/10/05 10:48:14;;;;;;;;;;;;;;;21.31;50.21;101536.78;6121102;23;6950;-74
2023/10/05 10:50:40;;;;;;;;;;;;;;;21.39;50.27;101534.34;6121347;23;6779;-73
2023/10/05 10:53:18;;;;;;;;;;;;;;;21.49;50.02;101539.78;6093851;23;6779;-73
2023/10/05 10:56:04;;;;;;;;;;;;;;;21.63;50.01;101533.97;6097070;23;6887;-74
2023/10/05 10:58:31;;;;;;;;;;;;;;;21.71;49.87;101540.25;6094966;23;6815;-73
2023/10/05 11:01:03;;;;;;;;;;;;;;;21.77;49.92;101536.88;6118997;23;6791;-74
2023/10/05 11:03:36;;;;;;;;;;;;;;;21.87;49.54;101528.38;6093006;23;6937;-73
2023/10/05 11:06:04;;;;;;;;;;;;;;;21.94;49.86;101524.19;6092756;23;6778;-74
2023/10/05 11:08:40;;;;;;;;;;;;;;;22.00;49.30;101505.16;6093290;23;6973;-74
2023/10/05 11:11:19;;;;;;;;;;;;;;;22.06;49.15;101505.22;6094489;23;6818;-73
2023/10/05 11:13:56;;;;;;;;;;;;;;;22.11;48.92;101505.31;6095366;23;6898;-73
2023/10/05 11:16:45;;;;;;;;;;;;;;;22.17;48.91;101502.81;6095609;23;6771;-73
2023/10/05 11:19:20;;;;;;;;;;;;;;;22.23;49.25;101502.06;6092670;23;6800;-73
2023/10/05 11:21:47;;;;;;;;;;;;;;;22.33;49.22;101497.03;6095686;23;6779;-74
2023/10/05 11:24:18;;;;;;;;;;;;;;;22.46;49.20;101489.38;6093504;23;6846;-74
2023/10/05 11:29:28;;;;;;;;;;;;;;;22.98;49.03;101496.25;6127749;23;7004;-76
2023/10/05 11:32:10;;;;;;;;;;;;;;;23.42;48.43;101485.53;6093254;23;7183;-74
2023/10/05 11:34:42;;;;;;;;;;;;;;;23.92;47.51;101493.06;6071138;23;6974;-74
2023/10/05 11:37:18;;;;;;;;;;;;;;;24.45;46.76;101489.19;6096747;23;7022;-74
2023/10/05 11:39:49;;;;;;;;;;;;;;;24.92;46.15;101493.00;6095227;23;7052;-73
2023/10/05 11:42:25;;;;;;;;;;;;;;;25.39;45.40;101487.97;6094916;23;6771;-76
2023/10/05 11:45:03;;;;;;;;;;;;;;;25.90;43.95;101479.38;6096062;23;7236;-74
2023/10/05 11:47:35;;;;;;;;;;;;;;;26.37;43.28;101475.03;6093984;23;6914;-74
2023/10/05 11:50:33;;;;;;;;;;;;;;;26.98;42.45;101482.81;6116622;23;6774;-73
2023/10/05 11:53:06;;;;;;;;;;;;;;;27.69;41.10;101479.00;6095706;23;7183;-73
2023/10/05 11:55:35;;;;;;;;;;;;;;;28.38;40.08;101461.78;6092449;23;6986;-74
2023/10/05 11:58:01;;;;;;;;;;;;;;;28.88;38.65;101471.88;6092230;23;7414;-73
2023/10/05 12:00:31;;;;;;;;;;;;;;;29.25;38.52;101476.66;6091353;23;6779;-73
2023/10/05 12:02:57;;;;;;;;;;;;;;;29.48;37.66;101472.88;6067095;23;7017;-73
2023/10/05 12:05:25;;;;;;;;;;;;;;;29.35;37.64;101477.41;6090884;23;6771;-73
2023/10/05 12:07:51;;;;;;;;;;;;;;;29.29;37.24;101472.22;6115497;23;7129;-73
2023/10/05 12:10:16;;;;;;;;;;;;;;;29.30;37.32;101467.81;6092119;23;6854;-73
2023/10/05 12:12:48;;;;;;;;;;;;;;;29.07;36.74;101477.78;6092949;23;6771;-73
2023/10/05 12:15:17;;;;;;;;;;;;;;;28.39;36.76;101474.09;6093414;23;6954;-73
2023/10/05 12:17:46;;;;;;;;;;;;;;;27.58;37.28;101474.69;6093043;23;6950;-73
2023/10/05 12:20:15;;;;;;;;;;;;;;;26.81;38.00;101480.22;6092341;23;6779;-74
2023/10/05 12:22:41;;;;;;;;;;;;;;;26.16;38.25;101478.53;6092307;23;6966;-73
2023/10/05 12:25:08;;;;;;;;;;;;;;;25.58;38.71;101486.31;6115124;23;6963;-74
2023/10/05 12:27:35;;;;;;;;;;;;;;;25.09;38.95;101490.47;6092142;23;7180;-73
2023/10/05 12:30:10;;;;;;;;;;;;;;;24.70;39.65;101481.47;6092016;23;6990;-73
2023/10/05 12:32:40;;;;;;;;;;;;;;;24.39;40.21;101487.41;6091075;23;11423;-74
2023/10/05 12:35:16;;;;;;;;;;;;;;;24.17;40.38;101485.44;6093261;23;6951;-74
2023/10/05 12:37:44;;;;;;;;;;;;;;;23.97;40.73;101484.38;6069404;23;7206;-74
2023/10/05 12:40:26;;;;;;;;;;;;;;;23.83;41.64;101493.81;6093430;23;6790;-74
2023/10/05 12:42:52;;;;;;;;;;;;;;;23.70;41.47;101488.47;6095613;23;6782;-74
2023/10/05 12:45:24;;;;;;;;;;;;;;;23.61;41.50;101490.97;6111194;23;6810;-75
2023/10/05 12:47:57;;;;;;;;;;;;;;;23.59;41.96;101492.72;6090059;23;6783;-74
2023/10/05 12:50:25;;;;;;;;;;;;;;;23.60;42.15;101491.84;6092139;23;6943;-74
2023/10/05 12:52:52;;;;;;;;;;;;;;;23.64;42.04;101493.63;6091239;23;6838;-74
2023/10/05 12:55:19;;;;;;;;;;;;;;;23.65;42.22;101497.13;6089775;23;6779;-74
2023/10/05 12:57:50;;;;;;;;;;;;;;;23.63;41.46;101499.72;6090574;23;6779;-74
2023/10/05 13:00:40;;;;;;;;;;;;;;;23.64;42.21;101508.47;6094289;23;6782;-74
2023/10/05 13:03:05;;;;;;;;;;;;;;;23.60;42.47;101499.69;6076294;23;6962;-72
2023/10/05 13:05:31;;;;;;;;;;;;;;;23.59;42.34;101497.94;6093543;23;6926;-72
2023/10/05 13:08:02;;;;;;;;;;;;;;;23.60;41.86;101497.09;6096324;23;7293;-72
2023/10/05 13:10:31;;;;;;;;;;;;;;;23.61;42.53;101498.84;6097366;23;7013;-73
2023/10/05 13:13:40;;;;;;;;;;;;;;;23.64;42.61;101501.47;6122000;23;6851;-72
2023/10/05 13:15:47;;;;;;;;;;;;;;;23.65;42.60;101502.38;6099512;23;6779;-73
2023/10/05 13:18:17;;;;;;;;;;;;;;;23.66;42.37;101502.41;6097239;23;7130;-72
2023/10/05 13:20:51;;;;;;;;;;;;;;;23.73;42.72;101505.94;6074097;23;6961;-73
2023/10/05 13:23:24;;;;;;;;;;;;;;;23.75;42.69;101498.09;6120911;23;6778;-72
2023/10/05 13:25:52;;;;;;;;;;;;;;;23.83;42.92;101507.81;6096093;23;6978;-74
2023/10/05 13:28:24;;;;;;;;;;;;;;;23.95;43.00;101507.06;6071877;23;7282;-74
2023/10/05 13:30:50;;;;;;;;;;;;;;;24.07;42.73;101502.84;6079763;23;7277;-73
2023/10/05 13:33:21;;;;;;;;;;;;;;;24.19;42.06;101502.94;6121544;23;6782;-73
2023/10/05 13:35:48;;;;;;;;;;;;;;;24.32;42.16;101492.56;6100739;23;6979;-73
2023/10/05 13:38:19;;;;;;;;;;;;;;;24.42;42.80;101486.50;6125748;23;7415;-73